sensor_id;sensor_type;location;lat;lon;timestamp;temperature;humidity
20233;DHT22;37438;55.674;13.074;2023-08-12T00:02:31;19.30;99.90
20233;DHT22;37438;55.674;13.074;2023-08-12T00:05:36;19.20;99.90
20233;DHT22;37438;55.674;13.074;2023-08-12T00:08:41;19.20;99.90
20233;DHT22;37438;55.674;13.074;2023-08-12T00:11:45;19.20;99.90
20233;DHT22;37438;55.674;13.074;2023-08-12T00:14:49;19.30;99.90
20233;DHT22;37438;55.674;13.074;2023-08-12T00:17:53;19.30;99.90
20233;DHT22;37438;55.674;13.074;2023-08-12T00:20:58;19.40;99.90
20233;DHT22;37438;55.674;13.074;2023-08-12T00:24:03;19.40;99.90
20233;DHT22;37438;55.674;13.074;2023-08-12T00:27:07;19.50;99.90
20233;DHT22;37438;55.674;13.074;2023-08-12T00:30:13;19.50;99.90
20233;DHT22;37438;55.674;13.074;2023-08-12T00:33:17;19.60;99.90
20233;DHT22;37438;55.674;13.074;2023-08-12T00:36:22;19.70;99.90
20233;DHT22;37438;55.674;13.074;2023-08-12T00:39:27;19.60;99.90
20233;DHT22;37438;55.674;13.074;2023-08-12T00:42:32;19.60;99.90
20233;DHT22;37438;55.674;13.074;2023-08-12T00:45:36;19.70;99.90
20233;DHT22;37438;55.674;13.074;2023-08-12T00:48:40;19.70;99.90
20233;DHT22;37438;55.674;13.074;2023-08-12T00:51:46;19.80;99.90
20233;DHT22;37438;55.674;13.074;2023-08-12T00:54:52;19.80;99.90
20233;DHT22;37438;55.674;13.074;2023-08-12T00:57:57;19.80;99.90
20233;DHT22;37438;55.674;13.074;2023-08-12T01:01:01;19.80;99.90
20233;DHT22;37438;55.674;13.074;2023-08-12T01:04:05;19.90;99.90
20233;DHT22;37438;55.674;13.074;2023-08-12T01:07:09;19.80;99.90
20233;DHT22;37438;55.674;13.074;2023-08-12T01:10:15;19.90;99.90
20233;DHT22;37438;55.674;13.074;2023-08-12T01:17:04;19.80;99.90
20233;DHT22;37438;55.674;13.074;2023-08-12T01:20:11;19.90;99.90
20233;DHT22;37438;55.674;13.074;2023-08-12T01:23:19;19.80;99.90
20233;DHT22;37438;55.674;13.074;2023-08-12T01:26:24;19.70;99.90
20233;DHT22;37438;55.674;13.074;2023-08-12T01:29:30;19.70;99.90
20233;DHT22;37438;55.674;13.074;2023-08-12T01:32:37;19.70;99.90
20233;DHT22;37438;55.674;13.074;2023-08-12T01:35:47;19.60;99.90
20233;DHT22;37438;55.674;13.074;2023-08-12T01:38:53;19.60;99.90
20233;DHT22;37438;55.674;13.074;2023-08-12T01:41:58;19.60;99.90
20233;DHT22;37438;55.674;13.074;2023-08-12T01:45:03;19.50;99.90
20233;DHT22;37438;55.674;13.074;2023-08-12T01:48:07;19.40;99.90
20233;DHT22;37438;55.674;13.074;2023-08-12T01:51:12;19.40;99.90
20233;DHT22;37438;55.674;13.074;2023-08-12T01:54:17;19.30;99.90
20233;DHT22;37438;55.674;13.074;2023-08-12T01:57:21;19.40;99.90
20233;DHT22;37438;55.674;13.074;2023-08-12T02:00:25;19.30;99.90
20233;DHT22;37438;55.674;13.074;2023-08-12T02:03:29;19.30;99.90
20233;DHT22;37438;55.674;13.074;2023-08-12T02:06:34;19.30;99.90
20233;DHT22;37438;55.674;13.074;2023-08-12T02:09:38;19.30;99.90
20233;DHT22;37438;55.674;13.074;2023-08-12T02:12:42;19.30;99.90
20233;DHT22;37438;55.674;13.074;2023-08-12T02:15:46;19.40;99.90
20233;DHT22;37438;55.674;13.074;2023-08-12T02:18:51;19.30;99.90
20233;DHT22;37438;55.674;13.074;2023-08-12T02:21:56;19.30;99.90
20233;DHT22;37438;55.674;13.074;2023-08-12T02:25:00;19.30;99.90
20233;DHT22;37438;55.674;13.074;2023-08-12T02:28:04;19.20;99.90
20233;DHT22;37438;55.674;13.074;2023-08-12T02:31:08;19.20;99.90
20233;DHT22;37438;55.674;13.074;2023-08-12T02:34:12;19.10;99.90
20233;DHT22;37438;55.674;13.074;2023-08-12T02:37:16;19.10;99.90
20233;DHT22;37438;55.674;13.074;2023-08-12T02:40:20;18.90;99.90
20233;DHT22;37438;55.674;13.074;2023-08-12T02:43:24;19.00;99.90
20233;DHT22;37438;55.674;13.074;2023-08-12T02:46:29;18.80;99.90
20233;DHT22;37438;55.674;13.074;2023-08-12T02:49:34;18.70;99.90
20233;DHT22;37438;55.674;13.074;2023-08-12T02:52:38;18.70;99.90
20233;DHT22;37438;55.674;13.074;2023-08-12T02:55:42;18.50;99.90
20233;DHT22;37438;55.674;13.074;2023-08-12T02:58:48;18.60;99.90
20233;DHT22;37438;55.674;13.074;2023-08-12T03:01:53;18.60;99.90
20233;DHT22;37438;55.674;13.074;2023-08-12T03:04:57;18.50;99.90
20233;DHT22;37438;55.674;13.074;2023-08-12T03:08:02;18.50;99.90
20233;DHT22;37438;55.674;13.074;2023-08-12T03:11:08;18.50;99.90
20233;DHT22;37438;55.674;13.074;2023-08-12T03:14:12;18.50;99.90
20233;DHT22;37438;55.674;13.074;2023-08-12T03:17:17;18.40;99.90
20233;DHT22;37438;55.674;13.074;2023-08-12T03:20:21;18.40;99.90
20233;DHT22;37438;55.674;13.074;2023-08-12T03:23:26;18.40;99.90
20233;DHT22;37438;55.674;13.074;2023-08-12T03:26:32;18.40;99.90
20233;DHT22;37438;55.674;13.074;2023-08-12T03:29:37;18.50;99.90
20233;DHT22;37438;55.674;13.074;2023-08-12T03:32:43;18.40;99.90
20233;DHT22;37438;55.674;13.074;2023-08-12T03:35:49;18.40;99.90
20233;DHT22;37438;55.674;13.074;2023-08-12T03:38:54;18.50;99.90
20233;DHT22;37438;55.674;13.074;2023-08-12T03:42:03;18.50;99.90
20233;DHT22;37438;55.674;13.074;2023-08-12T03:45:08;18.50;99.90
20233;DHT22;37438;55.674;13.074;2023-08-12T03:48:12;18.50;99.90
20233;DHT22;37438;55.674;13.074;2023-08-12T03:51:16;18.60;99.90
20233;DHT22;37438;55.674;13.074;2023-08-12T03:54:20;18.60;99.90
20233;DHT22;37438;55.674;13.074;2023-08-12T03:57:25;18.60;99.90
20233;DHT22;37438;55.674;13.074;2023-08-12T04:00:30;18.60;99.90
20233;DHT22;37438;55.674;13.074;2023-08-12T04:03:37;18.60;99.90
20233;DHT22;37438;55.674;13.074;2023-08-12T04:06:42;18.60;99.90
20233;DHT22;37438;55.674;13.074;2023-08-12T04:09:46;18.60;99.90
20233;DHT22;37438;55.674;13.074;2023-08-12T04:12:50;18.60;99.90
20233;DHT22;37438;55.674;13.074;2023-08-12T04:15:55;18.70;99.90
20233;DHT22;37438;55.674;13.074;2023-08-12T04:19:02;18.70;99.90
20233;DHT22;37438;55.674;13.074;2023-08-12T04:22:06;18.70;99.90
20233;DHT22;37438;55.674;13.074;2023-08-12T04:25:11;18.80;99.90
20233;DHT22;37438;55.674;13.074;2023-08-12T04:28:15;18.80;99.90
20233;DHT22;37438;55.674;13.074;2023-08-12T04:31:19;18.70;99.90
20233;DHT22;37438;55.674;13.074;2023-08-12T04:34:24;18.80;99.90
20233;DHT22;37438;55.674;13.074;2023-08-12T04:37:30;18.80;99.90
20233;DHT22;37438;55.674;13.074;2023-08-12T04:40:40;18.80;99.90
20233;DHT22;37438;55.674;13.074;2023-08-12T04:43:45;18.80;99.90
20233;DHT22;37438;55.674;13.074;2023-08-12T04:46:50;18.80;99.90
20233;DHT22;37438;55.674;13.074;2023-08-12T04:49:55;18.80;99.90
20233;DHT22;37438;55.674;13.074;2023-08-12T04:52:59;18.90;99.90
20233;DHT22;37438;55.674;13.074;2023-08-12T04:56:04;18.80;99.90
20233;DHT22;37438;55.674;13.074;2023-08-12T04:59:08;18.90;99.90
20233;DHT22;37438;55.674;13.074;2023-08-12T05:02:15;18.90;99.90
20233;DHT22;37438;55.674;13.074;2023-08-12T05:05:19;18.90;99.90
20233;DHT22;37438;55.674;13.074;2023-08-12T05:08:24;18.90;99.90
20233;DHT22;37438;55.674;13.074;2023-08-12T05:11:29;18.90;99.90
20233;DHT22;37438;55.674;13.074;2023-08-12T05:14:34;18.90;99.90
20233;DHT22;37438;55.674;13.074;2023-08-12T05:17:39;19.00;99.90
20233;DHT22;37438;55.674;13.074;2023-08-12T05:20:45;19.00;99.90
20233;DHT22;37438;55.674;13.074;2023-08-12T05:23:51;18.90;99.90
20233;DHT22;37438;55.674;13.074;2023-08-12T05:26:55;19.00;99.90
20233;DHT22;37438;55.674;13.074;2023-08-12T05:29:59;19.00;99.90
20233;DHT22;37438;55.674;13.074;2023-08-12T05:33:04;19.00;99.90
20233;DHT22;37438;55.674;13.074;2023-08-12T05:36:09;19.00;99.90
20233;DHT22;37438;55.674;13.074;2023-08-12T05:39:13;19.10;99.90
20233;DHT22;37438;55.674;13.074;2023-08-12T05:42:17;19.20;99.90
20233;DHT22;37438;55.674;13.074;2023-08-12T05:45:21;19.10;99.90
20233;DHT22;37438;55.674;13.074;2023-08-12T05:48:25;19.20;99.90
20233;DHT22;37438;55.674;13.074;2023-08-12T05:51:29;19.20;99.90
20233;DHT22;37438;55.674;13.074;2023-08-12T05:54:34;19.20;99.90
20233;DHT22;37438;55.674;13.074;2023-08-12T05:57:38;19.20;99.90
20233;DHT22;37438;55.674;13.074;2023-08-12T06:00:42;19.20;99.90
20233;DHT22;37438;55.674;13.074;2023-08-12T06:03:49;19.20;99.90
20233;DHT22;37438;55.674;13.074;2023-08-12T06:06:54;19.30;99.90
20233;DHT22;37438;55.674;13.074;2023-08-12T06:09:58;19.30;99.90
20233;DHT22;37438;55.674;13.074;2023-08-12T06:13:03;19.30;99.90
20233;DHT22;37438;55.674;13.074;2023-08-12T06:16:07;19.30;99.90
20233;DHT22;37438;55.674;13.074;2023-08-12T06:19:13;19.40;99.90
20233;DHT22;37438;55.674;13.074;2023-08-12T06:22:17;19.40;99.90
20233;DHT22;37438;55.674;13.074;2023-08-12T06:25:22;19.40;99.90
20233;DHT22;37438;55.674;13.074;2023-08-12T06:28:26;19.50;99.90
20233;DHT22;37438;55.674;13.074;2023-08-12T06:31:31;19.50;99.90
20233;DHT22;37438;55.674;13.074;2023-08-12T06:34:36;19.50;99.90
20233;DHT22;37438;55.674;13.074;2023-08-12T06:37:40;19.50;99.90
20233;DHT22;37438;55.674;13.074;2023-08-12T06:40:46;19.60;99.90
20233;DHT22;37438;55.674;13.074;2023-08-12T06:43:51;19.50;99.90
20233;DHT22;37438;55.674;13.074;2023-08-12T06:46:55;19.60;99.90
20233;DHT22;37438;55.674;13.074;2023-08-12T06:49:59;19.60;99.90
20233;DHT22;37438;55.674;13.074;2023-08-12T06:53:03;19.60;99.90
20233;DHT22;37438;55.674;13.074;2023-08-12T06:56:08;19.70;99.90
20233;DHT22;37438;55.674;13.074;2023-08-12T06:59:12;19.80;99.90
20233;DHT22;37438;55.674;13.074;2023-08-12T07:02:17;19.80;99.90
20233;DHT22;37438;55.674;13.074;2023-08-12T07:05:21;19.90;99.90
20233;DHT22;37438;55.674;13.074;2023-08-12T07:08:25;20.00;99.90
20233;DHT22;37438;55.674;13.074;2023-08-12T07:11:31;20.10;99.90
20233;DHT22;37438;55.674;13.074;2023-08-12T07:14:35;20.10;99.90
20233;DHT22;37438;55.674;13.074;2023-08-12T07:17:39;20.10;99.90
20233;DHT22;37438;55.674;13.074;2023-08-12T07:20:44;20.20;99.90
20233;DHT22;37438;55.674;13.074;2023-08-12T07:23:48;20.20;99.90
20233;DHT22;37438;55.674;13.074;2023-08-12T07:27:07;20.30;22.40
20233;DHT22;37438;55.674;13.074;2023-08-12T07:30:11;20.40;99.90
20233;DHT22;37438;55.674;13.074;2023-08-12T07:33:16;20.50;99.90
20233;DHT22;37438;55.674;13.074;2023-08-12T07:36:20;20.70;99.90
20233;DHT22;37438;55.674;13.074;2023-08-12T07:39:25;20.70;1.00
20233;DHT22;37438;55.674;13.074;2023-08-12T07:42:29;20.70;1.00
20233;DHT22;37438;55.674;13.074;2023-08-12T07:45:33;20.80;1.00
20233;DHT22;37438;55.674;13.074;2023-08-12T07:48:37;20.80;10.20
20233;DHT22;37438;55.674;13.074;2023-08-12T07:51:42;21.10;99.90
20233;DHT22;37438;55.674;13.074;2023-08-12T07:54:46;21.20;1.00
20233;DHT22;37438;55.674;13.074;2023-08-12T07:57:50;21.30;99.90
20233;DHT22;37438;55.674;13.074;2023-08-12T08:00:55;22.60;99.90
20233;DHT22;37438;55.674;13.074;2023-08-12T08:03:59;22.80;99.90
20233;DHT22;37438;55.674;13.074;2023-08-12T08:07:03;22.80;99.90
20233;DHT22;37438;55.674;13.074;2023-08-12T08:10:08;23.30;1.00
20233;DHT22;37438;55.674;13.074;2023-08-12T08:13:12;23.40;1.00
20233;DHT22;37438;55.674;13.074;2023-08-12T08:16:17;23.90;99.90
20233;DHT22;37438;55.674;13.074;2023-08-12T08:19:21;24.10;99.90
20233;DHT22;37438;55.674;13.074;2023-08-12T08:22:33;24.70;99.90
20233;DHT22;37438;55.674;13.074;2023-08-12T08:25:37;25.30;99.90
20233;DHT22;37438;55.674;13.074;2023-08-12T08:28:42;25.50;91.20
20233;DHT22;37438;55.674;13.074;2023-08-12T08:31:46;25.70;12.70
20233;DHT22;37438;55.674;13.074;2023-08-12T08:34:51;26.20;1.00
20233;DHT22;37438;55.674;13.074;2023-08-12T08:37:55;25.90;1.00
20233;DHT22;37438;55.674;13.074;2023-08-12T08:40:59;26.00;1.00
20233;DHT22;37438;55.674;13.074;2023-08-12T08:44:06;27.20;1.00
20233;DHT22;37438;55.674;13.074;2023-08-12T08:47:11;26.90;1.00
20233;DHT22;37438;55.674;13.074;2023-08-12T08:50:18;26.00;1.00
20233;DHT22;37438;55.674;13.074;2023-08-12T08:53:23;25.20;1.00
20233;DHT22;37438;55.674;13.074;2023-08-12T08:56:27;24.80;1.00
20233;DHT22;37438;55.674;13.074;2023-08-12T08:59:33;24.80;9.00
20233;DHT22;37438;55.674;13.074;2023-08-12T09:02:37;24.80;8.90
20233;DHT22;37438;55.674;13.074;2023-08-12T09:05:42;24.60;24.70
20233;DHT22;37438;55.674;13.074;2023-08-12T09:08:47;24.50;37.40
20233;DHT22;37438;55.674;13.074;2023-08-12T09:11:52;24.60;58.00
20233;DHT22;37438;55.674;13.074;2023-08-12T09:14:58;24.40;51.60
20233;DHT22;37438;55.674;13.074;2023-08-12T09:18:06;24.30;30.90
20233;DHT22;37438;55.674;13.074;2023-08-12T09:21:11;24.10;38.60
20233;DHT22;37438;55.674;13.074;2023-08-12T09:24:15;23.90;60.30
20233;DHT22;37438;55.674;13.074;2023-08-12T09:27:19;23.90;60.40
20233;DHT22;37438;55.674;13.074;2023-08-12T09:30:24;23.80;93.50
20233;DHT22;37438;55.674;13.074;2023-08-12T09:33:28;23.80;92.90
20233;DHT22;37438;55.674;13.074;2023-08-12T09:36:33;23.90;92.50
20233;DHT22;37438;55.674;13.074;2023-08-12T09:39:37;24.00;99.10
20233;DHT22;37438;55.674;13.074;2023-08-12T09:42:45;24.00;99.80
20233;DHT22;37438;55.674;13.074;2023-08-12T09:45:51;24.00;99.90
20233;DHT22;37438;55.674;13.074;2023-08-12T09:48:56;24.10;99.90
20233;DHT22;37438;55.674;13.074;2023-08-12T09:52:02;24.00;99.90
20233;DHT22;37438;55.674;13.074;2023-08-12T09:55:07;24.20;99.90
20233;DHT22;37438;55.674;13.074;2023-08-12T09:58:12;24.70;99.90
20233;DHT22;37438;55.674;13.074;2023-08-12T10:01:18;24.70;33.30
20233;DHT22;37438;55.674;13.074;2023-08-12T10:04:23;25.20;15.40
20233;DHT22;37438;55.674;13.074;2023-08-12T10:07:28;25.50;1.00
20233;DHT22;37438;55.674;13.074;2023-08-12T10:10:34;26.60;1.00
20233;DHT22;37438;55.674;13.074;2023-08-12T10:13:42;27.10;99.90
20233;DHT22;37438;55.674;13.074;2023-08-12T10:16:47;26.60;99.90
20233;DHT22;37438;55.674;13.074;2023-08-12T10:19:55;27.10;99.90
20233;DHT22;37438;55.674;13.074;2023-08-12T10:22:59;27.90;99.90
20233;DHT22;37438;55.674;13.074;2023-08-12T10:26:05;27.80;99.90
20233;DHT22;37438;55.674;13.074;2023-08-12T10:29:10;27.80;99.90
20233;DHT22;37438;55.674;13.074;2023-08-12T10:32:15;28.50;99.90
20233;DHT22;37438;55.674;13.074;2023-08-12T10:35:19;29.40;99.90
20233;DHT22;37438;55.674;13.074;2023-08-12T10:38:23;28.30;99.90
20233;DHT22;37438;55.674;13.074;2023-08-12T10:41:28;28.80;99.90
20233;DHT22;37438;55.674;13.074;2023-08-12T10:44:38;28.90;99.90
20233;DHT22;37438;55.674;13.074;2023-08-12T10:51:04;28.00;99.90
20233;DHT22;37438;55.674;13.074;2023-08-12T10:54:21;27.90;99.90
20233;DHT22;37438;55.674;13.074;2023-08-12T10:57:35;27.10;99.90
20233;DHT22;37438;55.674;13.074;2023-08-12T11:00:43;26.50;99.90
20233;DHT22;37438;55.674;13.074;2023-08-12T11:03:48;26.70;99.90
20233;DHT22;37438;55.674;13.074;2023-08-12T11:06:53;26.50;99.90
20233;DHT22;37438;55.674;13.074;2023-08-12T11:09:59;26.40;99.90
20233;DHT22;37438;55.674;13.074;2023-08-12T11:13:08;26.40;99.90
20233;DHT22;37438;55.674;13.074;2023-08-12T11:16:12;27.00;99.90
20233;DHT22;37438;55.674;13.074;2023-08-12T11:19:16;27.20;99.90
20233;DHT22;37438;55.674;13.074;2023-08-12T11:22:21;27.20;99.90
20233;DHT22;37438;55.674;13.074;2023-08-12T11:25:28;27.30;99.90
20233;DHT22;37438;55.674;13.074;2023-08-12T11:28:32;26.70;99.90
20233;DHT22;37438;55.674;13.074;2023-08-12T11:31:36;26.80;99.90
20233;DHT22;37438;55.674;13.074;2023-08-12T11:34:40;28.40;99.90
20233;DHT22;37438;55.674;13.074;2023-08-12T11:37:49;28.40;99.90
20233;DHT22;37438;55.674;13.074;2023-08-12T11:40:53;29.20;99.90
20233;DHT22;37438;55.674;13.074;2023-08-12T11:43:58;29.60;99.90
20233;DHT22;37438;55.674;13.074;2023-08-12T11:47:02;28.80;99.90
20233;DHT22;37438;55.674;13.074;2023-08-12T11:50:10;28.00;99.90
20233;DHT22;37438;55.674;13.074;2023-08-12T11:53:15;28.40;99.90
20233;DHT22;37438;55.674;13.074;2023-08-12T11:56:19;28.70;99.90
20233;DHT22;37438;55.674;13.074;2023-08-12T11:59:24;27.70;99.90
20233;DHT22;37438;55.674;13.074;2023-08-12T12:02:30;27.90;99.90
20233;DHT22;37438;55.674;13.074;2023-08-12T12:05:34;27.70;99.90
20233;DHT22;37438;55.674;13.074;2023-08-12T12:08:39;28.30;99.90
20233;DHT22;37438;55.674;13.074;2023-08-12T12:11:43;28.30;99.90
20233;DHT22;37438;55.674;13.074;2023-08-12T12:14:48;28.50;99.90
20233;DHT22;37438;55.674;13.074;2023-08-12T12:17:52;28.50;99.90
20233;DHT22;37438;55.674;13.074;2023-08-12T12:20:57;29.90;99.90
20233;DHT22;37438;55.674;13.074;2023-08-12T12:24:02;29.20;99.90
20233;DHT22;37438;55.674;13.074;2023-08-12T12:27:06;28.70;99.90
20233;DHT22;37438;55.674;13.074;2023-08-12T12:30:11;29.10;99.90
20233;DHT22;37438;55.674;13.074;2023-08-12T12:33:16;28.10;99.90
20233;DHT22;37438;55.674;13.074;2023-08-12T12:36:20;27.90;99.90
20233;DHT22;37438;55.674;13.074;2023-08-12T12:39:25;27.80;99.90
20233;DHT22;37438;55.674;13.074;2023-08-12T12:42:29;27.70;99.90
20233;DHT22;37438;55.674;13.074;2023-08-12T12:45:34;27.70;99.90
20233;DHT22;37438;55.674;13.074;2023-08-12T12:48:39;27.50;99.90
20233;DHT22;37438;55.674;13.074;2023-08-12T12:51:43;27.50;99.90
20233;DHT22;37438;55.674;13.074;2023-08-12T12:54:47;27.60;99.90
20233;DHT22;37438;55.674;13.074;2023-08-12T12:57:51;27.40;99.90
20233;DHT22;37438;55.674;13.074;2023-08-12T13:00:55;27.60;99.90
20233;DHT22;37438;55.674;13.074;2023-08-12T13:04:00;27.60;99.90
20233;DHT22;37438;55.674;13.074;2023-08-12T13:07:04;27.60;99.90
20233;DHT22;37438;55.674;13.074;2023-08-12T13:10:08;27.10;99.90
20233;DHT22;37438;55.674;13.074;2023-08-12T13:13:13;27.50;99.90
20233;DHT22;37438;55.674;13.074;2023-08-12T13:16:18;27.70;99.90
20233;DHT22;37438;55.674;13.074;2023-08-12T13:19:22;27.50;99.90
20233;DHT22;37438;55.674;13.074;2023-08-12T13:22:27;29.00;99.90
20233;DHT22;37438;55.674;13.074;2023-08-12T13:25:32;29.00;99.90
20233;DHT22;37438;55.674;13.074;2023-08-12T13:28:37;28.70;99.90
20233;DHT22;37438;55.674;13.074;2023-08-12T13:31:42;29.30;99.90
20233;DHT22;37438;55.674;13.074;2023-08-12T13:34:46;29.00;99.90
20233;DHT22;37438;55.674;13.074;2023-08-12T13:37:52;29.20;99.90
20233;DHT22;37438;55.674;13.074;2023-08-12T13:40:56;28.70;99.90
20233;DHT22;37438;55.674;13.074;2023-08-12T13:44:00;29.00;99.90
20233;DHT22;37438;55.674;13.074;2023-08-12T13:47:05;28.40;99.90
20233;DHT22;37438;55.674;13.074;2023-08-12T13:50:09;27.90;99.90
20233;DHT22;37438;55.674;13.074;2023-08-12T13:53:14;28.20;99.90
20233;DHT22;37438;55.674;13.074;2023-08-12T13:56:19;27.70;99.90
20233;DHT22;37438;55.674;13.074;2023-08-12T13:59:24;27.60;99.90
20233;DHT22;37438;55.674;13.074;2023-08-12T14:02:28;27.10;99.90
20233;DHT22;37438;55.674;13.074;2023-08-12T14:05:33;27.30;99.90
20233;DHT22;37438;55.674;13.074;2023-08-12T14:08:38;26.70;99.90
20233;DHT22;37438;55.674;13.074;2023-08-12T14:11:42;26.30;99.90
20233;DHT22;37438;55.674;13.074;2023-08-12T14:14:46;25.90;99.90
20233;DHT22;37438;55.674;13.074;2023-08-12T14:17:52;26.00;99.90
20233;DHT22;37438;55.674;13.074;2023-08-12T14:20:56;26.40;99.90
20233;DHT22;37438;55.674;13.074;2023-08-12T14:24:01;27.20;99.90
20233;DHT22;37438;55.674;13.074;2023-08-12T14:27:05;27.60;99.90
20233;DHT22;37438;55.674;13.074;2023-08-12T14:30:09;28.10;99.90
20233;DHT22;37438;55.674;13.074;2023-08-12T14:33:13;27.20;99.90
20233;DHT22;37438;55.674;13.074;2023-08-12T14:36:17;26.00;99.90
20233;DHT22;37438;55.674;13.074;2023-08-12T14:39:22;26.00;99.90
20233;DHT22;37438;55.674;13.074;2023-08-12T14:42:26;26.20;99.90
20233;DHT22;37438;55.674;13.074;2023-08-12T14:45:31;26.30;99.90
20233;DHT22;37438;55.674;13.074;2023-08-12T14:48:35;26.10;99.90
20233;DHT22;37438;55.674;13.074;2023-08-12T14:51:39;25.90;99.90
20233;DHT22;37438;55.674;13.074;2023-08-12T14:54:43;26.00;99.90
20233;DHT22;37438;55.674;13.074;2023-08-12T14:57:47;25.60;99.90
20233;DHT22;37438;55.674;13.074;2023-08-12T15:00:51;25.60;1.00
20233;DHT22;37438;55.674;13.074;2023-08-12T15:03:56;25.10;99.90
20233;DHT22;37438;55.674;13.074;2023-08-12T15:07:01;24.60;1.00
20233;DHT22;37438;55.674;13.074;2023-08-12T15:10:05;24.60;1.00
20233;DHT22;37438;55.674;13.074;2023-08-12T15:13:10;24.50;1.00
20233;DHT22;37438;55.674;13.074;2023-08-12T15:16:14;24.10;1.00
20233;DHT22;37438;55.674;13.074;2023-08-12T15:19:18;23.70;8.80
20233;DHT22;37438;55.674;13.074;2023-08-12T15:22:22;23.70;43.10
20233;DHT22;37438;55.674;13.074;2023-08-12T15:25:27;23.60;92.30
20233;DHT22;37438;55.674;13.074;2023-08-12T15:28:31;23.60;99.90
20233;DHT22;37438;55.674;13.074;2023-08-12T15:31:36;23.50;99.90
20233;DHT22;37438;55.674;13.074;2023-08-12T15:34:40;23.30;99.90
20233;DHT22;37438;55.674;13.074;2023-08-12T15:37:44;23.00;99.90
20233;DHT22;37438;55.674;13.074;2023-08-12T15:40:48;23.10;99.90
20233;DHT22;37438;55.674;13.074;2023-08-12T15:43:53;22.90;99.90
20233;DHT22;37438;55.674;13.074;2023-08-12T15:46:57;22.80;99.90
20233;DHT22;37438;55.674;13.074;2023-08-12T15:50:01;22.80;99.90
20233;DHT22;37438;55.674;13.074;2023-08-12T15:53:05;22.80;99.90
20233;DHT22;37438;55.674;13.074;2023-08-12T15:56:09;22.80;99.90
20233;DHT22;37438;55.674;13.074;2023-08-12T15:59:14;22.70;99.90
20233;DHT22;37438;55.674;13.074;2023-08-12T16:02:18;22.50;99.90
20233;DHT22;37438;55.674;13.074;2023-08-12T16:05:23;22.40;99.90
20233;DHT22;37438;55.674;13.074;2023-08-12T16:08:27;22.40;1.00
20233;DHT22;37438;55.674;13.074;2023-08-12T16:11:31;22.10;1.00
20233;DHT22;37438;55.674;13.074;2023-08-12T16:14:35;22.00;48.90
20233;DHT22;37438;55.674;13.074;2023-08-12T16:17:40;21.90;99.90
20233;DHT22;37438;55.674;13.074;2023-08-12T16:20:44;21.80;99.90
20233;DHT22;37438;55.674;13.074;2023-08-12T16:23:49;21.80;99.90
20233;DHT22;37438;55.674;13.074;2023-08-12T16:26:53;21.70;99.90
20233;DHT22;37438;55.674;13.074;2023-08-12T16:29:58;21.60;1.00
20233;DHT22;37438;55.674;13.074;2023-08-12T16:33:02;21.70;28.40
20233;DHT22;37438;55.674;13.074;2023-08-12T16:36:06;21.50;99.90
20233;DHT22;37438;55.674;13.074;2023-08-12T16:39:11;21.50;76.60
20233;DHT22;37438;55.674;13.074;2023-08-12T16:42:15;21.50;1.00
20233;DHT22;37438;55.674;13.074;2023-08-12T16:45:19;21.50;99.90
20233;DHT22;37438;55.674;13.074;2023-08-12T16:48:24;21.40;99.40
20233;DHT22;37438;55.674;13.074;2023-08-12T16:51:28;21.30;1.00
20233;DHT22;37438;55.674;13.074;2023-08-12T16:54:32;21.40;99.90
20233;DHT22;37438;55.674;13.074;2023-08-12T16:57:37;21.40;99.90
20233;DHT22;37438;55.674;13.074;2023-08-12T17:00:42;21.40;99.90
20233;DHT22;37438;55.674;13.074;2023-08-12T17:03:46;21.40;99.90
20233;DHT22;37438;55.674;13.074;2023-08-12T17:06:51;21.40;99.90
20233;DHT22;37438;55.674;13.074;2023-08-12T17:09:55;21.60;99.90
20233;DHT22;37438;55.674;13.074;2023-08-12T17:13:00;21.50;99.90
20233;DHT22;37438;55.674;13.074;2023-08-12T17:16:04;21.50;99.90
20233;DHT22;37438;55.674;13.074;2023-08-12T17:19:09;21.40;99.90
20233;DHT22;37438;55.674;13.074;2023-08-12T17:22:13;21.30;99.90
20233;DHT22;37438;55.674;13.074;2023-08-12T17:25:18;21.30;99.90
20233;DHT22;37438;55.674;13.074;2023-08-12T17:28:22;21.40;99.90
20233;DHT22;37438;55.674;13.074;2023-08-12T17:31:26;21.50;99.90
20233;DHT22;37438;55.674;13.074;2023-08-12T17:34:31;21.50;99.90
20233;DHT22;37438;55.674;13.074;2023-08-12T17:37:39;21.60;99.90
20233;DHT22;37438;55.674;13.074;2023-08-12T17:40:43;21.50;99.90
20233;DHT22;37438;55.674;13.074;2023-08-12T17:43:47;21.60;99.90
20233;DHT22;37438;55.674;13.074;2023-08-12T17:46:51;21.60;99.90
20233;DHT22;37438;55.674;13.074;2023-08-12T17:49:56;21.80;99.90
20233;DHT22;37438;55.674;13.074;2023-08-12T17:53:00;21.90;99.90
20233;DHT22;37438;55.674;13.074;2023-08-12T17:56:04;22.00;99.90
20233;DHT22;37438;55.674;13.074;2023-08-12T17:59:08;21.90;99.90
20233;DHT22;37438;55.674;13.074;2023-08-12T18:02:12;22.00;99.90
20233;DHT22;37438;55.674;13.074;2023-08-12T18:05:17;22.10;99.90
20233;DHT22;37438;55.674;13.074;2023-08-12T18:08:22;22.30;99.90
20233;DHT22;37438;55.674;13.074;2023-08-12T18:11:27;22.40;99.90
20233;DHT22;37438;55.674;13.074;2023-08-12T18:14:31;22.60;99.90
20233;DHT22;37438;55.674;13.074;2023-08-12T18:17:36;22.70;99.90
20233;DHT22;37438;55.674;13.074;2023-08-12T18:20:41;22.90;99.90
20233;DHT22;37438;55.674;13.074;2023-08-12T18:23:45;23.00;99.90
20233;DHT22;37438;55.674;13.074;2023-08-12T18:26:49;23.00;99.90
20233;DHT22;37438;55.674;13.074;2023-08-12T18:29:53;23.20;99.90
20233;DHT22;37438;55.674;13.074;2023-08-12T18:32:58;23.20;99.90
20233;DHT22;37438;55.674;13.074;2023-08-12T18:36:03;23.30;99.90
20233;DHT22;37438;55.674;13.074;2023-08-12T18:39:08;23.40;99.90
20233;DHT22;37438;55.674;13.074;2023-08-12T18:42:12;23.60;99.90
20233;DHT22;37438;55.674;13.074;2023-08-12T18:45:17;23.70;99.90
20233;DHT22;37438;55.674;13.074;2023-08-12T18:48:21;23.70;99.90
20233;DHT22;37438;55.674;13.074;2023-08-12T18:51:26;23.70;99.90
20233;DHT22;37438;55.674;13.074;2023-08-12T18:54:30;23.70;99.90
20233;DHT22;37438;55.674;13.074;2023-08-12T18:57:34;23.90;99.90
20233;DHT22;37438;55.674;13.074;2023-08-12T19:00:38;24.00;99.90
20233;DHT22;37438;55.674;13.074;2023-08-12T19:03:43;23.90;99.90
20233;DHT22;37438;55.674;13.074;2023-08-12T19:06:47;24.00;99.90
20233;DHT22;37438;55.674;13.074;2023-08-12T19:09:52;24.00;99.90
20233;DHT22;37438;55.674;13.074;2023-08-12T19:12:56;24.00;99.90
20233;DHT22;37438;55.674;13.074;2023-08-12T19:16:01;24.10;99.90
20233;DHT22;37438;55.674;13.074;2023-08-12T19:19:05;24.20;99.90